createdAt,value
2019-03-19T00:01:05.522Z,100359.07
2019-03-19T00:03:34.903Z,100368.59
2019-03-19T00:06:04.099Z,100370.77
2019-03-19T00:08:33.322Z,100376.73
2019-03-19T00:11:02.551Z,100376.82
2019-03-19T00:13:31.746Z,100377.71
2019-03-19T00:16:00.943Z,100381.98
2019-03-19T00:18:30.214Z,100386.74
2019-03-19T00:20:59.617Z,100387.73
2019-03-19T00:23:28.839Z,100400.72
2019-03-19T00:25:58.043Z,100402.80
2019-03-19T00:28:27.223Z,100404.09
2019-03-19T00:30:56.413Z,100288.96
2019-03-19T00:33:25.637Z,100407.56
2019-03-19T00:35:54.818Z,100415.30
2019-03-19T00:38:24.017Z,100423.84
2019-03-19T00:40:53.241Z,100426.42
2019-03-19T00:43:22.428Z,100431.19
2019-03-19T00:45:51.754Z,100438.53
2019-03-19T00:48:21.027Z,100442.89
2019-03-19T00:50:50.252Z,100446.27
2019-03-19T00:53:19.754Z,100448.85
2019-03-19T00:55:49.036Z,100451.43
2019-03-19T00:58:18.225Z,100456.50
2019-03-19T01:00:47.411Z,100461.66
2019-03-19T01:03:16.792Z,100479.32
2019-03-19T01:05:46.278Z,100480.21
2019-03-19T01:08:15.487Z,100482.79
2019-03-19T01:10:44.763Z,100485.77
2019-03-19T01:13:13.953Z,100485.77
2019-03-19T01:15:43.213Z,100497.38
2019-03-19T01:18:12.507Z,100491.73
2019-03-19T01:20:41.701Z,100504.23
2019-03-19T01:23:10.977Z,100507.80
2019-03-19T01:25:54.502Z,100517.72
2019-03-19T01:28:11.063Z,100516.92
2019-03-19T01:30:40.353Z,100514.64
2019-03-19T01:33:09.643Z,100525.86
2019-03-19T01:35:38.831Z,100527.55
2019-03-19T01:38:08.025Z,100539.16
2019-03-19T01:40:37.263Z,100538.27
2019-03-19T01:43:06.485Z,100550.67
2019-03-19T01:45:35.684Z,100549.29
2019-03-19T01:48:05.123Z,100552.45
2019-03-19T01:50:34.325Z,100563.17
2019-03-19T01:53:03.559Z,100560.30
2019-03-19T01:55:33.025Z,100571.81
2019-03-19T01:58:02.239Z,100565.85
2019-03-19T02:00:31.440Z,100579.06
2019-03-19T02:03:00.663Z,100576.57
2019-03-19T02:05:29.892Z,100583.33
2019-03-19T02:07:59.393Z,100580.25
2019-03-19T02:10:28.626Z,100585.71
2019-03-19T02:12:57.845Z,100597.72
2019-03-19T02:15:27.094Z,100601.09
2019-03-19T02:17:56.335Z,100601.89
2019-03-19T02:20:25.534Z,100606.66
2019-03-19T02:22:54.737Z,100612.21
2019-03-19T02:25:24.016Z,100618.07
2019-03-19T02:27:53.179Z,100630.97
2019-03-19T02:30:22.501Z,100635.43
2019-03-19T02:32:51.782Z,100630.67
2019-03-19T02:35:20.975Z,100632.45
2019-03-19T02:37:50.171Z,100630.37
2019-03-19T02:40:19.422Z,100636.42
2019-03-19T02:42:49.937Z,100641.58
2019-03-19T02:45:19.145Z,100635.62
2019-03-19T02:47:48.360Z,100642.48
2019-03-19T02:50:18.523Z,100646.74
2019-03-19T02:52:47.718Z,100652.30
2019-03-19T02:55:17.128Z,100632.95
2019-03-19T02:57:46.380Z,100655.67
2019-03-19T03:00:15.661Z,100661.73
2019-03-19T03:02:44.903Z,100672.45
2019-03-19T03:05:14.822Z,100679.39
2019-03-19T03:07:44.064Z,100685.94
2019-03-19T03:10:15.172Z,100689.91
2019-03-19T03:12:44.442Z,100693.78
2019-03-19T03:15:13.757Z,100698.84
2019-03-19T03:17:43.401Z,100710.55
2019-03-19T03:20:13.307Z,100719.58
2019-03-19T03:22:42.524Z,100723.55
2019-03-19T03:25:12.068Z,100732.19
2019-03-19T03:27:41.257Z,100735.86
2019-03-19T03:30:11.841Z,100736.26
2019-03-19T03:32:41.084Z,100744.50
2019-03-19T03:35:11.113Z,100751.45
2019-03-19T03:37:40.287Z,100744.10
2019-03-19T03:40:10.923Z,100751.84
2019-03-19T03:42:42.839Z,100747.57
2019-03-19T03:45:11.889Z,100748.86
2019-03-19T03:47:41.114Z,100760.48
2019-03-19T03:50:10.683Z,100764.75
2019-03-19T03:52:39.964Z,100765.64
2019-03-19T03:55:09.816Z,100766.03
2019-03-19T03:57:39.027Z,100773.78
2019-03-19T04:00:11.013Z,100775.06
2019-03-19T04:02:40.258Z,100779.34
2019-03-19T04:05:09.989Z,100791.05
2019-03-19T04:07:39.177Z,100783.70
2019-03-19T04:10:09.601Z,100787.17
2019-03-19T04:12:39.015Z,100795.91
2019-03-19T04:15:09.598Z,100795.02
2019-03-19T04:17:38.807Z,100795.91
2019-03-19T04:20:08.585Z,100801.57
2019-03-19T04:22:37.948Z,100804.55
2019-03-19T04:25:07.534Z,100810.20
2019-03-19T04:27:40.112Z,100811.50
2019-03-19T04:30:08.981Z,100812.69
2019-03-19T04:32:38.246Z,100823.02
2019-03-19T04:35:07.640Z,100828.97
2019-03-19T04:37:36.855Z,100836.81
2019-03-19T04:40:07.321Z,100843.27
2019-03-19T04:42:36.607Z,100847.53
2019-03-19T04:45:06.501Z,100844.55
2019-03-19T04:47:35.719Z,100845.84
2019-03-19T04:50:06.019Z,100849.22
2019-03-19T04:52:35.222Z,100856.46
2019-03-19T04:55:04.763Z,100857.25
2019-03-19T04:57:33.963Z,100870.45
2019-03-19T05:00:03.211Z,100873.42
2019-03-19T05:02:32.564Z,100878.59
2019-03-19T05:05:01.812Z,100881.56
2019-03-19T05:07:31.055Z,100888.30
2019-03-19T05:10:00.325Z,100891.78
2019-03-19T05:12:29.592Z,100899.91
2019-03-19T05:14:59.229Z,100913.82
2019-03-19T05:17:28.512Z,100910.73
2019-03-19T05:19:57.690Z,100921.84
2019-03-19T05:22:26.906Z,100923.14
2019-03-19T05:24:56.206Z,100924.83
2019-03-19T05:27:25.495Z,100940.41
2019-03-19T05:29:54.898Z,100936.15
2019-03-19T05:32:24.123Z,100936.94
2019-03-19T05:34:53.307Z,100936.84
2019-03-19T05:37:22.523Z,100944.68
2019-03-19T05:39:51.781Z,100942.39
2019-03-19T05:42:20.942Z,100957.58
2019-03-19T05:44:50.118Z,100960.16
2019-03-19T05:47:19.448Z,100964.43
2019-03-19T05:49:48.623Z,100975.64
2019-03-19T05:52:17.806Z,100983.78
2019-03-19T05:54:47.010Z,100983.28
2019-03-19T05:57:16.314Z,100978.12
2019-03-19T05:59:45.513Z,100982.78
2019-03-19T06:02:14.787Z,100991.12
2019-03-19T06:04:43.983Z,100989.95
2019-03-19T06:07:13.198Z,100995.89
2019-03-19T06:09:42.437Z,100997.69
2019-03-19T06:12:11.625Z,101000.66
2019-03-19T06:14:40.850Z,100998.98
2019-03-19T06:17:10.149Z,101010.59
2019-03-19T06:19:39.455Z,101014.06
2019-03-19T06:22:08.650Z,101026.08
2019-03-19T06:24:37.951Z,101032.92
2019-03-19T06:27:07.154Z,101028.95
2019-03-19T06:29:36.353Z,101041.84
2019-03-19T06:32:05.971Z,101034.78
2019-03-19T06:34:35.161Z,101050.87
2019-03-19T06:37:04.361Z,101047.40
2019-03-19T06:39:33.607Z,101058.41
2019-03-19T06:42:02.792Z,101065.64
2019-03-19T06:44:31.979Z,101068.62
2019-03-19T06:47:01.226Z,101085.72
2019-03-19T06:49:30.406Z,101087.51
2019-03-19T06:51:59.623Z,101088.02
2019-03-19T06:54:29.089Z,101093.06
2019-03-19T06:56:58.279Z,101099.91
2019-03-19T06:59:27.747Z,101101.20
2019-03-19T07:01:56.969Z,101114.50
2019-03-19T07:04:26.158Z,101110.63
2019-03-19T07:06:55.328Z,101117.08
2019-03-19T07:09:24.588Z,101113.70
2019-03-19T07:11:53.831Z,101121.34
2019-03-19T07:14:23.035Z,101135.65
2019-03-19T07:16:52.285Z,101129.59
2019-03-19T07:19:21.587Z,101131.60
2019-03-19T07:21:50.863Z,101144.05
2019-03-19T07:24:20.098Z,101148.53
2019-03-19T07:26:49.321Z,101164.63
2019-03-19T07:29:18.510Z,101164.12
2019-03-19T07:31:47.752Z,101153.52
2019-03-19T07:34:17.243Z,101153.69
2019-03-19T07:36:46.433Z,101165.70
2019-03-19T07:39:15.671Z,101163.73
2019-03-19T07:41:44.887Z,101162.27
2019-03-19T07:44:14.080Z,101172.03
2019-03-19T07:46:45.830Z,101175.84
2019-03-19T07:49:14.462Z,101173.36
2019-03-19T07:51:43.670Z,101180.32
2019-03-19T07:54:13.119Z,101189.40
2019-03-19T07:56:42.303Z,101194.39
2019-03-19T07:59:11.513Z,101202.81
2019-03-19T08:01:40.880Z,101213.54
2019-03-19T08:04:10.084Z,101221.50
2019-03-19T08:06:39.266Z,101217.84
2019-03-19T08:09:08.908Z,101213.41
2019-03-19T08:11:38.103Z,101224.02
2019-03-19T08:14:07.314Z,101233.23
2019-03-19T08:16:36.579Z,101230.77
2019-03-19T08:19:05.767Z,101239.02
2019-03-19T08:21:34.966Z,101242.89
2019-03-19T08:24:04.202Z,101250.79
2019-03-19T08:26:33.578Z,101251.91
2019-03-19T08:29:02.906Z,101199.31
2019-03-19T08:31:32.124Z,101264.89
2019-03-19T08:34:01.361Z,101260.45
2019-03-19T08:36:30.862Z,101262.28
2019-03-19T08:39:00.068Z,101264.30
2019-03-19T08:41:29.258Z,101268.06
2019-03-19T08:43:58.474Z,101280.91
2019-03-19T08:46:27.731Z,101282.31
2019-03-19T08:48:56.942Z,101285.30
2019-03-19T08:51:26.136Z,101287.42
2019-03-19T08:53:55.392Z,101298.63
2019-03-19T08:56:24.692Z,101288.83
2019-03-19T08:58:53.881Z,101290.66
2019-03-19T09:01:23.136Z,101301.14
2019-03-19T09:03:52.516Z,101301.10
2019-03-19T09:06:21.707Z,101314.78
2019-03-19T09:08:50.967Z,101319.22
2019-03-19T09:11:20.169Z,101313.38
2019-03-19T09:13:49.394Z,101315.78
2019-03-19T09:16:18.749Z,101320.98
2019-03-19T09:18:47.941Z,101322.90
2019-03-19T09:21:17.132Z,101323.33
2019-03-19T09:23:46.364Z,101324.91
2019-03-19T09:26:15.646Z,101327.63
2019-03-19T09:28:44.836Z,101333.81
2019-03-19T09:31:14.079Z,101335.81
2019-03-19T09:33:43.330Z,101345.48
2019-03-19T09:36:12.603Z,101347.06
2019-03-19T09:38:42.334Z,101351.14
2019-03-19T09:41:11.528Z,101361.52
2019-03-19T09:43:40.710Z,101362.20
2019-03-19T09:46:09.933Z,101370.85
2019-03-19T09:48:39.123Z,101363.05
2019-03-19T09:51:08.358Z,101375.91
2019-03-19T09:53:37.589Z,101380.70
2019-03-19T09:56:06.830Z,101374.15
2019-03-19T09:58:36.028Z,101386.96
2019-03-19T10:01:05.670Z,101388.48
2019-03-19T10:03:34.857Z,101383.70
2019-03-19T10:06:13.895Z,101387.30
2019-03-19T10:08:35.277Z,101393.65
2019-03-19T10:11:04.471Z,101391.27
2019-03-19T10:13:33.673Z,101394.41
2019-03-19T10:16:02.911Z,101402.56
2019-03-19T10:18:32.143Z,101408.02
2019-03-19T10:21:01.343Z,101413.16
2019-03-19T10:23:30.870Z,101423.28
2019-03-19T10:26:00.093Z,101421.74
2019-03-19T10:28:29.293Z,101426.16
2019-03-19T10:30:58.502Z,101428.89
2019-03-19T10:33:27.704Z,101434.26
2019-03-19T10:35:56.915Z,101437.09
2019-03-19T10:38:26.170Z,101435.44
2019-03-19T10:40:55.646Z,101440.48
2019-03-19T10:43:24.937Z,101431.85
2019-03-19T10:45:54.176Z,101431.67
2019-03-19T10:48:23.423Z,101445.67
2019-03-19T10:50:52.677Z,101446.64
2019-03-19T10:53:21.943Z,101460.78
2019-03-19T10:55:51.142Z,101452.80
2019-03-19T10:58:20.428Z,101448.53
2019-03-19T11:00:52.522Z,101453.01
2019-03-19T11:03:21.806Z,101460.29
2019-03-19T11:05:51.035Z,101466.92
2019-03-19T11:08:20.412Z,101466.05
2019-03-19T11:10:49.632Z,101458.24
2019-03-19T11:13:18.827Z,101463.95
2019-03-19T11:15:48.105Z,101468.34
2019-03-19T11:18:17.294Z,101459.95
2019-03-19T11:20:46.497Z,101463.78
2019-03-19T11:23:15.720Z,101464.83
2019-03-19T11:25:54.091Z,101469.74
2019-03-19T11:28:15.832Z,101467.13
2019-03-19T11:30:45.916Z,101471.25
2019-03-19T11:33:15.096Z,101477.08
2019-03-19T11:35:45.744Z,101474.94
2019-03-19T11:38:15.357Z,101473.43
2019-03-19T11:40:44.757Z,101484.70
2019-03-19T11:43:16.850Z,101480.05
2019-03-19T11:45:46.110Z,101480.83
2019-03-19T11:48:15.312Z,101482.08
2019-03-19T11:50:44.513Z,101481.69
2019-03-19T11:53:13.742Z,101475.66
2019-03-19T11:55:43.201Z,101485.95
2019-03-19T11:58:12.413Z,101490.87
2019-03-19T12:00:44.124Z,101489.80
2019-03-19T12:03:16.389Z,101493.45
2019-03-19T12:05:44.387Z,101496.69
2019-03-19T12:08:13.659Z,101498.41
2019-03-19T12:10:43.092Z,101500.11
2019-03-19T12:13:12.307Z,101498.89
2019-03-19T12:15:41.558Z,101495.09
2019-03-19T12:18:10.788Z,101503.30
2019-03-19T12:20:40.014Z,101510.59
2019-03-19T12:23:09.238Z,101506.89
2019-03-19T12:25:38.617Z,101512.32
2019-03-19T12:28:07.855Z,101521.55
2019-03-19T12:30:37.130Z,101515.27
2019-03-19T12:33:06.368Z,101518.46
2019-03-19T12:35:35.590Z,101519.83
2019-03-19T12:38:04.862Z,101515.36
2019-03-19T12:40:37.367Z,101520.39
2019-03-19T12:43:05.354Z,101516.35
2019-03-19T12:45:34.701Z,101536.53
2019-03-19T12:48:04.107Z,101521.84
2019-03-19T12:50:33.445Z,101518.90
2019-03-19T12:53:02.759Z,101522.66
2019-03-19T12:55:31.970Z,101510.77
2019-03-19T12:58:01.608Z,101527.48
2019-03-19T13:00:34.682Z,101531.17
2019-03-19T13:03:01.860Z,101527.02
2019-03-19T13:05:31.163Z,101539.75
2019-03-19T13:08:00.422Z,101535.53
2019-03-19T13:10:29.612Z,101529.61
2019-03-19T13:12:59.111Z,101532.68
2019-03-19T13:15:28.446Z,101534.67
2019-03-19T13:17:57.647Z,101531.59
2019-03-19T13:20:26.868Z,101533.30
2019-03-19T13:22:56.111Z,101541.80
2019-03-19T13:25:25.338Z,101542.30
2019-03-19T13:27:54.635Z,101543.10
2019-03-19T13:30:23.912Z,101552.48
2019-03-19T13:32:53.104Z,101552.22
2019-03-19T13:35:22.306Z,101544.15
2019-03-19T13:37:51.650Z,101556.99
2019-03-19T13:40:20.850Z,101555.06
2019-03-19T13:42:50.127Z,101551.30
2019-03-19T13:45:19.410Z,101561.83
2019-03-19T13:47:48.623Z,101557.22
2019-03-19T13:50:18.865Z,101567.47
2019-03-19T13:52:48.134Z,101577.04
2019-03-19T13:55:17.735Z,101574.73
2019-03-19T13:57:47.359Z,101565.91
2019-03-19T14:00:16.777Z,101580.42
2019-03-19T14:02:45.968Z,101584.38
2019-03-19T14:05:15.732Z,101581.20
2019-03-19T14:07:44.970Z,101586.45
2019-03-19T14:10:14.284Z,101600.88
2019-03-19T14:12:43.480Z,101602.23
2019-03-19T14:15:14.389Z,101612.08
2019-03-19T14:17:43.609Z,101606.97
2019-03-19T14:20:14.485Z,101613.93
2019-03-19T14:22:45.408Z,101614.99
2019-03-19T14:25:14.980Z,101622.33
2019-03-19T14:27:44.314Z,101627.56
2019-03-19T14:30:15.572Z,101636.63
2019-03-19T14:32:44.783Z,101640.61
2019-03-19T14:35:14.014Z,101640.58
2019-03-19T14:37:43.311Z,101644.93
2019-03-19T14:40:13.953Z,101652.08
2019-03-19T14:42:43.361Z,101666.50
2019-03-19T14:45:12.790Z,101559.42
2019-03-19T14:47:42.025Z,101666.00
2019-03-19T14:50:12.390Z,101676.00
2019-03-19T14:52:43.803Z,101676.50
2019-03-19T14:55:12.548Z,101685.05
2019-03-19T14:57:41.772Z,101689.48
2019-03-19T15:00:12.523Z,101681.71
2019-03-19T15:02:41.733Z,101689.73
2019-03-19T15:05:11.573Z,101692.39
2019-03-19T15:07:40.898Z,101697.75
2019-03-19T15:10:12.297Z,101701.22
2019-03-19T15:12:41.595Z,101707.75
2019-03-19T15:15:11.839Z,101713.14
2019-03-19T15:17:41.417Z,101720.66
2019-03-19T15:20:13.107Z,101711.30
2019-03-19T15:22:42.408Z,101716.28
2019-03-19T15:25:11.652Z,101724.31
2019-03-19T15:27:40.866Z,101733.03
2019-03-19T15:30:10.350Z,101732.77
2019-03-19T15:32:39.584Z,101739.59
2019-03-19T15:35:10.005Z,101740.56
2019-03-19T15:37:39.279Z,101741.34
2019-03-19T15:40:10.514Z,101745.56
2019-03-19T15:42:39.765Z,101748.95
2019-03-19T15:45:09.935Z,101741.41
2019-03-19T15:47:39.264Z,101752.61
2019-03-19T15:50:10.418Z,101759.63
2019-03-19T15:52:39.746Z,101758.05
2019-03-19T15:55:08.971Z,101754.05
2019-03-19T15:57:38.181Z,101759.94
2019-03-19T16:00:09.996Z,101761.65
2019-03-19T16:02:39.194Z,101764.66
2019-03-19T16:05:09.419Z,101768.93
2019-03-19T16:07:38.651Z,101768.88
2019-03-19T16:10:08.197Z,101767.58
2019-03-19T16:12:37.391Z,101769.27
2019-03-19T16:15:07.525Z,101770.97
2019-03-19T16:17:36.907Z,101771.70
2019-03-19T16:20:08.354Z,101771.63
2019-03-19T16:22:37.645Z,101776.34
2019-03-19T16:25:07.131Z,101775.58
2019-03-19T16:27:36.432Z,101778.23
2019-03-19T16:30:06.983Z,101777.24
2019-03-19T16:32:36.272Z,101781.67
2019-03-19T16:35:05.837Z,101790.16
2019-03-19T16:37:35.138Z,101784.95
2019-03-19T16:40:04.764Z,101790.59
2019-03-19T16:42:33.956Z,101795.94
2019-03-19T16:45:03.187Z,101803.86
2019-03-19T16:47:32.375Z,101801.87
2019-03-19T16:50:01.574Z,101801.11
2019-03-19T16:52:31.080Z,101802.91
2019-03-19T16:55:00.335Z,101801.81
2019-03-19T16:57:29.547Z,101806.41
2019-03-19T16:59:58.885Z,101805.80
2019-03-19T17:02:28.311Z,101800.38
2019-03-19T17:04:57.568Z,101793.67
2019-03-19T17:07:26.812Z,101800.05
2019-03-19T17:09:56.109Z,101809.42
2019-03-19T17:12:25.385Z,101816.19
2019-03-19T17:14:54.859Z,101819.55
2019-03-19T17:17:24.089Z,101820.83
2019-03-19T17:19:53.272Z,101823.11
2019-03-19T17:22:22.808Z,101830.47
2019-03-19T17:24:51.999Z,101833.25
2019-03-19T17:27:21.207Z,101829.72
2019-03-19T17:29:50.532Z,101837.58
2019-03-19T17:32:23.236Z,101836.34
2019-03-19T17:34:52.478Z,101841.11
2019-03-19T17:37:21.685Z,101844.06
2019-03-19T17:39:50.885Z,101854.45
2019-03-19T17:42:20.121Z,101848.89
2019-03-19T17:44:49.318Z,101848.39
2019-03-19T17:47:18.513Z,101854.25
2019-03-19T17:49:47.754Z,101850.94
2019-03-19T17:52:17.046Z,101808.24
2019-03-19T17:54:46.351Z,101858.88
2019-03-19T17:57:15.723Z,101853.47
2019-03-19T17:59:44.943Z,101866.22
2019-03-19T18:02:23.614Z,101864.80
2019-03-19T18:04:45.118Z,101867.68
2019-03-19T18:07:14.332Z,101869.94
2019-03-19T18:09:43.521Z,101871.52
2019-03-19T18:12:12.767Z,101878.55
2019-03-19T18:14:41.975Z,101877.55
2019-03-19T18:17:11.160Z,101878.10
2019-03-19T18:19:40.468Z,101878.89
2019-03-19T18:22:09.729Z,101880.35
2019-03-19T18:24:42.065Z,101884.13
2019-03-19T18:27:11.337Z,101886.38
2019-03-19T18:29:40.572Z,101893.92
2019-03-19T18:32:09.999Z,101894.47
2019-03-19T18:34:39.302Z,101895.66
2019-03-19T18:37:08.598Z,101893.23
2019-03-19T18:39:37.940Z,101897.67
2019-03-19T18:42:07.237Z,101904.19
2019-03-19T18:44:36.267Z,101900.86
2019-03-19T18:47:05.505Z,101906.59
2019-03-19T18:49:34.791Z,101908.83
2019-03-19T18:52:04.097Z,101912.48
2019-03-19T18:54:33.364Z,101913.42
2019-03-19T18:57:02.634Z,101915.50
2019-03-19T18:59:31.900Z,101915.11
2019-03-19T19:02:01.154Z,101922.37
2019-03-19T19:04:30.550Z,101798.06
2019-03-19T19:06:59.799Z,101915.22
2019-03-19T19:09:29.035Z,101919.77
2019-03-19T19:11:58.334Z,101923.41
2019-03-19T19:14:27.830Z,101918.55
2019-03-19T19:16:57.127Z,101913.01
2019-03-19T19:19:26.450Z,101922.73
2019-03-19T19:21:55.753Z,101919.55
2019-03-19T19:24:24.988Z,101920.09
2019-03-19T19:26:54.750Z,101923.22
2019-03-19T19:29:24.081Z,101921.17
2019-03-19T19:31:53.418Z,101922.34
2019-03-19T19:34:22.734Z,101928.30
2019-03-19T19:36:51.876Z,101928.69
2019-03-19T19:39:21.062Z,101928.06
2019-03-19T19:41:50.347Z,101926.13
2019-03-19T19:44:19.594Z,101928.23
2019-03-19T19:46:48.786Z,101930.45
2019-03-19T19:49:18.028Z,101930.08
2019-03-19T19:51:47.289Z,101928.16
2019-03-19T19:54:16.436Z,101936.30
2019-03-19T19:56:45.792Z,101940.45
2019-03-19T19:59:14.995Z,101931.03
2019-03-19T20:01:44.237Z,101934.54
2019-03-19T20:04:13.575Z,101938.44
2019-03-19T20:06:42.763Z,101930.97
2019-03-19T20:09:12.068Z,101934.08
2019-03-19T20:11:42.102Z,101933.05
2019-03-19T20:14:11.292Z,101936.69
2019-03-19T20:16:40.773Z,101943.28
2019-03-19T20:19:10.551Z,101941.35
2019-03-19T20:21:39.880Z,101934.77
2019-03-19T20:24:09.152Z,101937.61
2019-03-19T20:26:38.682Z,101942.14
2019-03-19T20:29:08.015Z,101943.57
2019-03-19T20:31:37.239Z,101948.11
2019-03-19T20:34:06.679Z,101943.85
2019-03-19T20:36:35.958Z,101833.30
2019-03-19T20:39:07.899Z,101945.42
2019-03-19T20:41:37.319Z,101953.17
2019-03-19T20:44:06.564Z,101863.48
2019-03-19T20:46:35.785Z,101950.47
2019-03-19T20:49:05.047Z,101945.30
2019-03-19T20:51:34.251Z,101627.02
2019-03-19T20:54:04.885Z,101942.34
2019-03-19T20:56:34.350Z,101941.82
2019-03-19T20:59:03.643Z,101938.08
2019-03-19T21:01:36.279Z,101933.95
2019-03-19T21:04:05.728Z,101941.95
2019-03-19T21:06:35.063Z,101943.38
2019-03-19T21:09:06.024Z,101945.95
2019-03-19T21:11:35.417Z,101943.76
2019-03-19T21:14:04.631Z,101946.86
2019-03-19T21:16:34.150Z,101948.28
2019-03-19T21:19:03.490Z,101951.12
2019-03-19T21:21:32.833Z,101953.44
2019-03-19T21:24:02.205Z,101949.19
2019-03-19T21:26:31.646Z,101942.86
2019-03-19T21:29:00.831Z,101943.62
2019-03-19T21:31:30.317Z,101951.11
2019-03-19T21:33:59.718Z,101677.50
2019-03-19T21:36:29.099Z,101942.85
2019-03-19T21:38:58.384Z,101948.79
2019-03-19T21:41:27.639Z,101946.59
2019-03-19T21:43:56.921Z,101940.27
2019-03-19T21:46:26.140Z,101936.00
2019-03-19T21:48:55.370Z,101934.97
2019-03-19T21:51:24.567Z,101939.09
2019-03-19T21:53:53.747Z,101940.77
2019-03-19T21:56:22.976Z,101949.16
2019-03-19T21:58:52.167Z,101950.06
2019-03-19T22:01:21.357Z,101942.58
2019-03-19T22:03:50.617Z,101946.31
2019-03-19T22:06:19.813Z,101945.15
2019-03-19T22:08:49.065Z,101948.50
2019-03-19T22:11:18.331Z,101952.23
2019-03-19T22:13:47.555Z,101945.91
2019-03-19T22:16:16.810Z,101950.42
2019-03-19T22:18:46.137Z,101952.48
2019-03-19T22:21:15.432Z,101957.89
2019-03-19T22:23:44.754Z,101948.98
2019-03-19T22:26:14.056Z,101958.41
2019-03-19T22:28:43.275Z,101953.88
2019-03-19T22:31:12.465Z,101951.17
2019-03-19T22:33:41.888Z,101946.52
2019-03-19T22:36:11.999Z,101950.89
2019-03-19T22:38:41.575Z,101941.73
2019-03-19T22:41:10.805Z,101947.14
2019-03-19T22:43:40.006Z,101951.51
2019-03-19T22:46:09.182Z,101952.14
2019-03-19T22:48:38.505Z,101948.92
2019-03-19T22:51:07.699Z,101948.78
2019-03-19T22:53:36.895Z,101950.84
2019-03-19T22:56:06.213Z,101950.74
2019-03-19T22:58:35.533Z,101960.39
2019-03-19T23:01:04.932Z,101950.74
2019-03-19T23:03:34.159Z,101951.13
2019-03-19T23:06:03.384Z,101945.45
2019-03-19T23:08:32.680Z,101952.28
2019-03-19T23:11:01.898Z,101949.19
2019-03-19T23:13:31.155Z,101943.89
2019-03-19T23:16:00.321Z,101944.41
2019-03-19T23:18:29.542Z,101934.48
2019-03-19T23:20:58.778Z,101927.91
2019-03-19T23:23:27.972Z,101922.50
2019-03-19T23:25:57.187Z,101928.56
2019-03-19T23:28:26.387Z,101928.83
2019-03-19T23:30:55.659Z,101922.25
2019-03-19T23:33:24.889Z,101920.30
2019-03-19T23:35:54.517Z,101921.21
2019-03-19T23:38:23.719Z,101917.86
2019-03-19T23:40:53.403Z,101922.50
2019-03-19T23:43:22.752Z,101926.50
2019-03-19T23:45:51.955Z,101932.05
2019-03-19T23:48:21.204Z,101931.77
2019-03-19T23:50:50.399Z,101932.55
2019-03-19T23:53:19.675Z,101929.20
2019-03-19T23:55:48.914Z,101918.75
2019-03-19T23:58:18.112Z,101914.36
